Time;durP1;ratioP1;P1;durP2;ratioP2;P2;SDS_P1;SDS_P2;PMS_P1;PMS_P2;Temp;Humidity;BMP_temperature;BMP_pressure;BME280_temperature;BME280_humidity;BME280_pressure;Samples;Min_cycle;Max_cycle;Signal;HPM_P1;HPM_P2
2022/12/18 00:02:03;;;;;;;50.90;28.00;;;;;;;-6.67;100.00;102695.22;5024465;28;20033;-65
2022/12/18 00:04:29;;;;;;;54.37;26.87;;;;;;;-6.70;100.00;102699.88;5025000;28;20025;-65
2022/12/18 00:06:54;;;;;;;53.17;26.33;;;;;;;-6.75;100.00;102687.56;5024658;28;20484;-65
2022/12/18 00:09:20;;;;;;;53.17;27.67;;;;;;;-6.78;100.00;102699.75;5026924;28;20029;-64
2022/12/18 00:11:45;;;;;;;58.73;29.27;;;;;;;-6.80;100.00;102691.06;5022617;28;20501;-65
2022/12/18 00:14:13;;;;;;;54.47;27.77;;;;;;;-6.80;100.00;102702.81;5026434;28;20092;-65
2022/12/18 00:16:39;;;;;;;53.87;27.53;;;;;;;-6.82;100.00;102695.03;5012711;28;20100;-65
2022/12/18 00:19:06;;;;;;;47.60;26.33;;;;;;;-6.85;100.00;102689.56;5009311;28;20124;-65
2022/12/18 00:21:32;;;;;;;55.80;26.63;;;;;;;-6.87;100.00;102681.78;5009694;28;20259;-64
2022/12/18 00:23:58;;;;;;;49.50;26.27;;;;;;;-6.89;100.00;102679.78;5010130;28;20505;-65
2022/12/18 00:26:31;;;;;;;49.93;26.33;;;;;;;-6.93;100.00;102668.41;5022586;28;20076;-64
2022/12/18 00:29:03;;;;;;;44.13;24.37;;;;;;;-6.95;100.00;102661.31;5022541;28;20431;-65
2022/12/18 00:31:28;;;;;;;48.70;26.47;;;;;;;-6.99;100.00;102658.41;5027813;28;20059;-64
2022/12/18 00:33:55;;;;;;;49.37;26.17;;;;;;;-7.00;100.00;102658.19;5013425;28;20026;-65
2022/12/18 00:36:23;;;;;;;52.53;28.57;;;;;;;-7.01;100.00;102659.81;5016276;28;20030;-65
2022/12/18 00:38:49;;;;;;;48.50;25.53;;;;;;;-7.00;100.00;102650.63;5025274;28;20025;-65
2022/12/18 00:42:55;;;;;;;49.93;26.27;;;;;;;-7.01;100.00;102662.31;5008933;28;20029;-65
2022/12/18 00:44:03;;;;;;;43.60;24.33;;;;;;;-7.02;100.00;102658.00;5008102;28;20099;-65
2022/12/18 00:46:28;;;;;;;49.47;26.87;;;;;;;-7.04;100.00;102649.31;5007484;28;20076;-64
2022/12/18 00:48:53;;;;;;;44.60;24.70;;;;;;;-7.06;100.00;102653.25;5008151;28;20049;-64
2022/12/18 00:51:19;;;;;;;45.13;23.77;;;;;;;-7.08;100.00;102653.75;5008187;28;20103;-64
2022/12/18 00:53:44;;;;;;;43.93;25.40;;;;;;;-7.12;100.00;102652.41;5009256;28;20053;-64
2022/12/18 00:56:09;;;;;;;48.10;26.90;;;;;;;-7.14;100.00;102649.72;5009009;28;20124;-65
2022/12/18 00:58:36;;;;;;;44.37;24.47;;;;;;;-7.15;100.00;102649.50;5009926;28;20478;-64
2022/12/18 01:01:04;;;;;;;43.23;23.60;;;;;;;-7.18;100.00;102641.53;5008420;28;20284;-64
2022/12/18 01:03:29;;;;;;;40.97;23.13;;;;;;;-7.20;100.00;102660.59;5009277;28;20466;-65
2022/12/18 01:05:54;;;;;;;47.50;24.27;;;;;;;-7.21;100.00;102662.19;5008959;28;20026;-65
2022/12/18 01:08:19;;;;;;;44.63;25.37;;;;;;;-7.20;100.00;102673.19;5009853;28;20021;-64
2022/12/18 01:10:45;;;;;;;45.57;24.40;;;;;;;-7.21;100.00;102671.38;5020434;28;20075;-64
2022/12/18 01:13:10;;;;;;;44.97;23.43;;;;;;;-7.22;100.00;102675.50;5009443;28;20040;-64
2022/12/18 01:15:35;;;;;;;42.73;23.53;;;;;;;-7.24;100.00;102672.78;5007540;28;20153;-64
2022/12/18 01:18:00;;;;;;;45.00;22.90;;;;;;;-7.23;100.00;102673.69;5009019;28;20076;-65
2022/12/18 01:20:26;;;;;;;46.27;25.30;;;;;;;-7.26;100.00;102674.19;5018179;28;20500;-64
2022/12/18 01:22:51;;;;;;;41.20;24.77;;;;;;;-7.27;100.00;102679.03;5012418;28;20057;-65
2022/12/18 01:25:16;;;;;;;47.60;25.47;;;;;;;-7.25;100.00;102685.19;5009439;28;20029;-64
2022/12/18 01:27:42;;;;;;;41.97;23.90;;;;;;;-7.28;100.00;102680.63;5014896;28;20013;-65
2022/12/18 01:30:07;;;;;;;43.03;23.37;;;;;;;-7.26;100.00;102679.25;5027160;28;20426;-65
2022/12/18 01:32:33;;;;;;;46.53;23.83;;;;;;;-7.27;100.00;102668.97;5025592;28;20568;-64
2022/12/18 01:34:58;;;;;;;41.50;24.70;;;;;;;-7.28;100.00;102673.06;5013604;28;20022;-64
2022/12/18 01:37:24;;;;;;;41.63;22.50;;;;;;;-7.30;100.00;102674.47;5014215;28;20087;-64
2022/12/18 01:39:49;;;;;;;45.47;22.63;;;;;;;-7.31;100.00;102664.19;5025591;28;20022;-64
2022/12/18 01:42:16;;;;;;;40.73;22.27;;;;;;;-7.32;100.00;102663.28;5007601;28;20014;-64
2022/12/18 01:44:56;;;;;;;44.27;22.63;;;;;;;-7.33;100.00;102668.13;5008902;28;20124;-65
2022/12/18 01:47:27;;;;;;;36.83;23.15;;;;;;;-7.37;100.00;102661.75;5026326;28;20386;-65
2022/12/18 01:49:54;;;;;;;41.67;22.90;;;;;;;-7.38;100.00;102665.00;5013047;28;20644;-65
2022/12/18 01:52:20;;;;;;;40.70;22.33;;;;;;;-7.39;100.00;102658.13;5026670;28;20030;-64
2022/12/18 01:54:47;;;;;;;40.03;22.80;;;;;;;-7.41;100.00;102667.13;5025754;28;20363;-64
2022/12/18 01:57:12;;;;;;;41.77;22.37;;;;;;;-7.43;100.00;102673.56;5026349;28;20104;-64
2022/12/18 01:59:40;;;;;;;41.07;22.97;;;;;;;-7.43;100.00;102668.50;5013284;28;20128;-64
2022/12/18 02:02:07;;;;;;;37.87;22.30;;;;;;;-7.43;100.00;102673.56;5019837;28;20025;-64
2022/12/18 02:04:32;;;;;;;37.80;23.03;;;;;;;-7.46;100.00;102658.91;5021078;28;20053;-65
2022/12/18 02:07:29;;;;;;;45.03;23.90;;;;;;;-7.48;100.00;102651.16;5010249;28;20464;-64
2022/12/18 02:10:06;;;;;;;38.60;23.13;;;;;;;-7.44;100.00;102659.13;5018929;28;20104;-66
2022/12/18 02:12:48;;;;;;;41.03;21.60;;;;;;;-7.47;100.00;102647.97;5029755;28;20052;-64
2022/12/18 02:15:20;;;;;;;43.23;21.43;;;;;;;-7.47;100.00;102653.00;5029239;28;20049;-64
2022/12/18 02:18:20;;;;;;;38.87;22.77;;;;;;;-7.48;100.00;102655.28;5029572;28;20067;-64
2022/12/18 02:20:59;;;;;;;33.00;21.73;;;;;;;-7.50;100.00;102647.53;5018020;28;20032;-64
2022/12/18 02:23:45;;;;;;;37.93;22.67;;;;;;;-7.51;100.00;102652.34;5027453;28;20539;-64
2022/12/18 02:26:13;;;;;;;39.60;22.60;;;;;;;-7.55;100.00;102652.63;5030350;28;20039;-64
2022/12/18 02:28:46;;;;;;;38.37;22.17;;;;;;;-7.55;100.00;102653.56;5027772;28;20025;-63
2022/12/18 02:31:17;;;;;;;36.60;22.37;;;;;;;-7.54;100.00;102652.88;5012865;28;20101;-63
2022/12/18 02:33:44;;;;;;;36.67;20.47;;;;;;;-7.54;100.00;102654.47;5012603;28;20022;-63
2022/12/18 02:36:12;;;;;;;36.27;21.63;;;;;;;-7.57;100.00;102654.97;5012078;28;20068;-63
2022/12/18 02:38:39;;;;;;;36.67;21.23;;;;;;;-7.59;100.00;102647.19;5012910;28;20149;-63
2022/12/18 02:41:05;;;;;;;37.60;21.00;;;;;;;-7.60;100.00;102654.56;5011914;28;20041;-63
2022/12/18 02:43:30;;;;;;;35.97;21.63;;;;;;;-7.62;100.00;102645.88;5013436;28;20121;-63
2022/12/18 02:45:59;;;;;;;36.80;20.63;;;;;;;-7.63;100.00;102641.56;5010534;28;20093;-63
2022/12/18 02:48:34;;;;;;;34.90;21.07;;;;;;;-7.65;100.00;102636.31;5011726;28;20060;-63
2022/12/18 02:51:21;;;;;;;37.73;20.80;;;;;;;-7.70;100.00;102632.28;5010864;28;20053;-63
2022/12/18 02:53:56;;;;;;;38.57;21.00;;;;;;;-7.71;100.00;102626.31;5011286;28;20049;-63
2022/12/18 02:56:38;;;;;;;31.73;20.03;;;;;;;-7.69;100.00;102630.63;5011186;28;20037;-63
2022/12/18 02:59:12;;;;;;;36.93;20.10;;;;;;;-7.69;100.00;102635.69;5010118;28;20349;-62
2022/12/18 03:01:47;;;;;;;33.40;20.10;;;;;;;-7.72;100.00;102637.06;5009805;28;20537;-63
2022/12/18 03:04:27;;;;;;;33.00;20.50;;;;;;;-7.73;100.00;102637.78;5009459;28;20520;-63
2022/12/18 03:07:01;;;;;;;32.47;19.37;;;;;;;-7.77;100.00;102625.47;5021791;28;20026;-63
2022/12/18 03:09:33;;;;;;;31.83;19.27;;;;;;;-7.80;100.00;102627.59;5009829;28;20364;-62
2022/12/18 03:12:24;;;;;;;32.03;19.17;;;;;;;-7.83;100.00;102614.59;5009571;28;20083;-63
2022/12/18 03:15:18;;;;;;;34.53;19.07;;;;;;;-7.82;100.00;102603.81;5022849;28;20014;-63
2022/12/18 03:17:50;;;;;;;31.80;18.90;;;;;;;-7.82;100.00;102602.94;5002782;28;20596;-63
2022/12/18 03:20:19;;;;;;;37.10;18.73;;;;;;;-7.86;100.00;102594.94;5010090;28;20014;-63
2022/12/18 03:22:49;;;;;;;32.57;18.83;;;;;;;-7.87;100.00;102607.31;5009863;28;20186;-63
2022/12/18 03:25:16;;;;;;;27.77;17.80;;;;;;;-7.90;100.00;102611.94;5010506;28;20018;-63
2022/12/18 03:27:47;;;;;;;31.23;17.63;;;;;;;-7.92;100.00;102616.78;5014542;28;20414;-63
2022/12/18 03:30:15;;;;;;;34.73;19.13;;;;;;;-7.92;100.00;102618.38;5017380;28;20466;-63
2022/12/18 03:32:52;;;;;;;29.60;19.00;;;;;;;-7.92;100.00;102618.38;5009349;28;20021;-63
2022/12/18 03:35:24;;;;;;;32.60;17.70;;;;;;;-7.96;100.00;102617.97;5023075;28;20034;-62
2022/12/18 03:37:49;;;;;;;33.33;17.93;;;;;;;-7.97;100.00;102616.16;5009591;28;20079;-63
2022/12/18 03:40:15;;;;;;;28.87;17.93;;;;;;;-7.99;100.00;102612.53;5009680;28;20132;-62
2022/12/18 03:42:55;;;;;;;28.60;16.53;;;;;;;-8.00;100.00;102605.66;5008943;28;20030;-63
2022/12/18 03:45:32;;;;;;;32.65;17.75;;;;;;;-8.00;100.00;102610.69;5013881;28;20040;-63
2022/12/18 03:48:06;;;;;;;29.17;16.57;;;;;;;-8.03;100.00;102615.31;5011349;28;20038;-63
2022/12/18 03:50:59;;;;;;;28.87;17.07;;;;;;;-8.03;100.00;102605.25;5013582;28;20421;-63
2022/12/18 03:53:57;;;;;;;28.93;17.17;;;;;;;-8.03;100.00;102602.75;5019900;28;20037;-63
2022/12/18 03:56:25;;;;;;;30.20;15.67;;;;;;;-8.02;100.00;102596.13;5017111;28;20053;-63
2022/12/18 03:58:53;;;;;;;25.27;16.70;;;;;;;-8.05;100.00;102596.59;5019760;28;20069;-63
2022/12/18 04:01:22;;;;;;;25.93;16.00;;;;;;;-8.07;100.00;102583.81;5025077;28;20102;-63
2022/12/18 04:03:49;;;;;;;27.17;15.10;;;;;;;-8.08;100.00;102578.56;5024365;28;20078;-63
2022/12/18 04:06:16;;;;;;;32.73;17.33;;;;;;;-8.07;100.00;102577.84;5025347;28;20051;-63
2022/12/18 04:08:42;;;;;;;22.70;15.30;;;;;;;-8.09;100.00;102574.22;5021022;28;20188;-63
2022/12/18 04:11:07;;;;;;;25.73;15.60;;;;;;;-8.10;100.00;102565.78;5024948;28;20018;-63
2022/12/18 04:13:35;;;;;;;26.13;15.20;;;;;;;-8.10;100.00;102560.75;5025144;28;20115;-63
2022/12/18 04:16:01;;;;;;;25.07;15.67;;;;;;;-8.09;100.00;102564.16;5028172;28;20025;-63
2022/12/18 04:18:26;;;;;;;26.23;16.23;;;;;;;-8.08;100.00;102560.94;5019466;28;20500;-63
2022/12/18 04:20:52;;;;;;;27.50;16.43;;;;;;;-8.08;100.00;102556.78;5028129;28;20075;-62
2022/12/18 04:23:17;;;;;;;24.20;15.13;;;;;;;-8.08;100.00;102550.88;5022478;28;20414;-62
2022/12/18 04:25:42;;;;;;;28.57;14.77;;;;;;;-8.08;100.00;102550.88;5025924;28;20079;-63
2022/12/18 04:28:08;;;;;;;23.47;14.67;;;;;;;-8.07;100.00;102547.66;5023721;28;20048;-62
2022/12/18 04:30:33;;;;;;;24.80;14.47;;;;;;;-8.08;100.00;102555.91;5026235;28;20044;-63
2022/12/18 04:32:58;;;;;;;26.70;15.27;;;;;;;-8.09;100.00;102551.56;5026110;28;20481;-62
2022/12/18 04:35:24;;;;;;;24.07;14.57;;;;;;;-8.10;100.00;102559.81;5027143;28;20026;-63
2022/12/18 04:37:49;;;;;;;22.53;14.37;;;;;;;-8.11;100.00;102568.97;5024363;28;20029;-62
2022/12/18 04:40:14;;;;;;;20.87;13.73;;;;;;;-8.11;100.00;102573.13;5019656;28;20076;-62
2022/12/18 04:42:40;;;;;;;21.40;14.33;;;;;;;-8.12;100.00;102573.81;5020051;28;20033;-62
2022/12/18 04:45:06;;;;;;;24.10;14.70;;;;;;;-8.14;100.00;102570.16;5027655;28;20091;-63
2022/12/18 04:47:31;;;;;;;26.07;14.73;;;;;;;-8.16;100.00;102564.00;5025852;28;20543;-63
2022/12/18 04:49:57;;;;;;;25.00;14.87;;;;;;;-8.17;100.00;102574.78;5025288;28;20038;-62
2022/12/18 04:52:22;;;;;;;20.27;13.13;;;;;;;-8.20;100.00;102581.22;5025263;28;20036;-63
2022/12/18 04:54:47;;;;;;;24.63;15.13;;;;;;;-8.21;100.00;102589.50;5024652;28;20465;-62
2022/12/18 04:57:13;;;;;;;21.77;13.07;;;;;;;-8.21;100.00;102593.59;5025183;28;20029;-63
2022/12/18 04:59:38;;;;;;;22.50;13.90;;;;;;;-8.19;100.00;102592.22;5026100;28;20029;-63
2022/12/18 05:02:03;;;;;;;19.90;13.43;;;;;;;-8.18;100.00;102600.69;5026748;28;20029;-63
2022/12/18 05:04:29;;;;;;;22.33;14.40;;;;;;;-8.19;100.00;102607.31;5026299;28;20316;-62
2022/12/18 05:06:54;;;;;;;26.00;14.07;;;;;;;-8.20;100.00;102601.34;5015400;28;20029;-62
2022/12/18 05:09:20;;;;;;;21.77;12.43;;;;;;;-8.21;100.00;102599.56;5008353;28;20029;-63
2022/12/18 05:11:46;;;;;;;23.00;14.87;;;;;;;-8.22;100.00;102602.75;5009274;28;20057;-62
2022/12/18 05:14:12;;;;;;;21.67;13.70;;;;;;;-8.23;100.00;102600.94;5022443;28;20025;-62
2022/12/18 05:16:37;;;;;;;20.63;11.90;;;;;;;-8.24;100.00;102606.66;5009840;28;20060;-62
2022/12/18 05:19:02;;;;;;;25.60;14.63;;;;;;;-8.25;100.00;102597.31;5012093;28;20049;-63
2022/12/18 05:21:27;;;;;;;19.30;12.90;;;;;;;-8.26;100.00;102605.56;5009976;28;20042;-62
2022/12/18 05:23:53;;;;;;;21.20;12.70;;;;;;;-8.27;100.00;102603.72;5015078;28;20300;-62
2022/12/18 05:26:18;;;;;;;20.33;12.80;;;;;;;-8.28;100.00;102596.91;5016081;28;20502;-63
2022/12/18 05:28:45;;;;;;;20.40;12.23;;;;;;;-8.29;100.00;102590.03;5022276;28;20040;-62
2022/12/18 05:31:11;;;;;;;20.77;13.40;;;;;;;-8.27;100.00;102593.66;5007544;28;20056;-63
2022/12/18 05:33:36;;;;;;;19.27;12.97;;;;;;;-8.28;100.00;102590.94;5019419;28;20025;-62
2022/12/18 05:36:04;;;;;;;19.07;12.63;;;;;;;-8.27;100.00;102593.66;5023931;28;20490;-62
2022/12/18 05:38:31;;;;;;;19.87;12.33;;;;;;;-8.30;100.00;102593.25;5025673;28;20083;-63
2022/12/18 05:40:57;;;;;;;19.30;12.60;;;;;;;-8.28;100.00;102585.91;5024531;28;20052;-63
2022/12/18 05:43:23;;;;;;;22.03;13.10;;;;;;;-8.32;100.00;102585.50;5025568;28;20381;-62
2022/12/18 05:45:49;;;;;;;22.40;12.57;;;;;;;-8.35;100.00;102581.66;5026224;28;20017;-62
2022/12/18 05:48:15;;;;;;;19.30;12.20;;;;;;;-8.38;100.00;102579.63;5026390;28;20025;-62
2022/12/18 05:50:42;;;;;;;19.97;12.03;;;;;;;-8.36;100.00;102577.31;5025924;28;20049;-62
2022/12/18 05:53:08;;;;;;;22.83;13.37;;;;;;;-8.38;100.00;102569.56;5014452;28;20018;-62
2022/12/18 05:55:38;;;;;;;18.77;12.73;;;;;;;-8.36;100.00;102574.78;5009112;28;20049;-62
2022/12/18 05:58:04;;;;;;;20.37;13.07;;;;;;;-8.39;100.00;102572.78;5008747;28;20069;-62
2022/12/18 06:00:31;;;;;;;23.17;12.20;;;;;;;-8.38;100.00;102563.66;5014233;28;20276;-62
2022/12/18 06:02:57;;;;;;;20.77;13.80;;;;;;;-8.38;100.00;102564.53;5016323;28;20034;-62
2022/12/18 06:05:22;;;;;;;18.40;11.67;;;;;;;-8.37;100.00;102565.44;5014455;28;20390;-62
2022/12/18 06:07:47;;;;;;;23.37;13.47;;;;;;;-8.36;100.00;102559.69;5014104;28;20033;-62
2022/12/18 06:10:13;;;;;;;17.43;12.90;;;;;;;-8.35;100.00;102564.06;5012489;28;20496;-62
2022/12/18 06:12:38;;;;;;;20.40;12.37;;;;;;;-8.35;100.00;102566.56;5021262;28;20341;-62
2022/12/18 06:15:04;;;;;;;16.37;11.40;;;;;;;-8.35;100.00;102564.06;5013892;28;20371;-62
2022/12/18 06:17:31;;;;;;;18.43;12.43;;;;;;;-8.36;100.00;102563.13;5010259;28;20469;-62
2022/12/18 06:19:56;;;;;;;20.53;13.07;;;;;;;-8.36;100.00;102559.69;5013426;28;20029;-62
2022/12/18 06:22:21;;;;;;;20.43;12.73;;;;;;;-8.37;100.00;102571.41;5021220;28;20045;-62
2022/12/18 06:24:47;;;;;;;18.20;11.73;;;;;;;-8.37;100.00;102571.41;5012338;28;20022;-62
2022/12/18 06:27:12;;;;;;;22.27;12.77;;;;;;;-8.35;100.00;102574.13;5025219;28;20048;-62
2022/12/18 06:29:37;;;;;;;19.93;13.27;;;;;;;-8.36;100.00;102577.31;5017088;28;20560;-62
2022/12/18 06:32:03;;;;;;;19.73;12.50;;;;;;;-8.36;100.00;102577.31;5013423;28;20037;-62
2022/12/18 06:34:28;;;;;;;21.40;13.83;;;;;;;-8.38;100.00;102573.72;5009017;28;20061;-62
2022/12/18 06:36:54;;;;;;;19.50;12.30;;;;;;;-8.39;100.00;102566.84;5020428;28;20025;-62
2022/12/18 06:39:19;;;;;;;19.90;13.13;;;;;;;-8.39;100.00;102571.88;5019407;28;20088;-62
2022/12/18 06:41:44;;;;;;;18.33;12.23;;;;;;;-8.43;100.00;102576.50;5034584;28;20041;-62
2022/12/18 06:44:09;;;;;;;20.93;13.23;;;;;;;-8.43;100.00;102571.47;5017888;28;20311;-62
2022/12/18 06:46:35;;;;;;;17.57;12.17;;;;;;;-8.43;100.00;102565.50;5024648;28;20043;-62
2022/12/18 06:49:00;;;;;;;18.80;12.00;;;;;;;-8.44;100.00;102554.53;5022875;28;20374;-62
2022/12/18 06:51:26;;;;;;;19.63;12.60;;;;;;;-8.43;100.00;102561.41;5018237;28;20156;-62
2022/12/18 06:53:51;;;;;;;18.37;12.33;;;;;;;-8.44;100.00;102552.03;5016427;28;20390;-62
2022/12/18 06:56:17;;;;;;;21.80;12.80;;;;;;;-8.45;100.00;102544.28;5030134;28;20029;-62
2022/12/18 06:58:42;;;;;;;17.23;12.37;;;;;;;-8.46;100.00;102537.44;5015698;28;20065;-62
2022/12/18 07:01:10;;;;;;;20.60;13.53;;;;;;;-8.47;100.00;102549.09;5022512;28;20034;-62
2022/12/18 07:03:37;;;;;;;20.27;14.07;;;;;;;-8.45;100.00;102550.22;5027779;28;20048;-62
2022/12/18 07:06:02;;;;;;;21.43;13.67;;;;;;;-8.41;100.00;102558.19;5019726;28;20036;-62
2022/12/18 07:08:30;;;;;;;24.47;14.73;;;;;;;-8.41;100.00;102555.66;5022283;28;20498;-62
2022/12/18 07:10:55;;;;;;;20.83;14.23;;;;;;;-8.40;100.00;102555.88;5022955;28;20030;-62
2022/12/18 07:13:20;;;;;;;22.40;13.30;;;;;;;-8.37;100.00;102540.28;5014338;28;20088;-62
2022/12/18 07:15:45;;;;;;;24.67;15.43;;;;;;;-8.35;100.00;102531.34;5022123;28;20358;-62
2022/12/18 07:18:11;;;;;;;22.93;14.67;;;;;;;-8.33;100.00;102527.44;5014469;28;20036;-62
2022/12/18 07:20:36;;;;;;;21.87;15.00;;;;;;;-8.33;100.00;102518.25;5012064;28;20024;-62
2022/12/18 07:23:03;;;;;;;21.73;14.90;;;;;;;-8.32;100.00;102520.09;5016693;28;20029;-62
2022/12/18 07:25:28;;;;;;;23.30;15.03;;;;;;;-8.32;100.00;102509.13;5017920;28;20018;-62
2022/12/18 07:27:54;;;;;;;21.47;14.47;;;;;;;-8.33;100.00;102508.19;5015199;28;20389;-62
2022/12/18 07:30:19;;;;;;;23.83;14.43;;;;;;;-8.31;100.00;102490.81;5009188;28;20455;-62
2022/12/18 07:32:45;;;;;;;22.57;15.70;;;;;;;-8.32;100.00;102492.41;5015497;28;20017;-62
2022/12/18 07:35:10;;;;;;;22.33;14.20;;;;;;;-8.31;100.00;102489.19;5019650;28;20034;-62
2022/12/18 07:37:35;;;;;;;23.17;14.83;;;;;;;-8.33;100.00;102492.22;5015580;28;20037;-62
2022/12/18 07:40:00;;;;;;;25.40;15.40;;;;;;;-8.28;100.00;102496.25;5011518;28;20385;-62
2022/12/18 07:42:31;;;;;;;26.17;15.87;;;;;;;-8.26;100.00;102491.44;5010488;28;20075;-62
2022/12/18 07:45:01;;;;;;;21.20;14.90;;;;;;;-8.26;100.00;102481.38;5014929;28;20033;-62
2022/12/18 07:47:26;;;;;;;24.97;15.80;;;;;;;-8.24;100.00;102478.34;5014390;28;20485;-62
2022/12/18 07:49:52;;;;;;;22.90;14.70;;;;;;;-8.21;100.00;102470.31;5010307;28;20042;-62
2022/12/18 07:52:17;;;;;;;22.27;13.77;;;;;;;-8.18;100.00;102467.31;5013896;28;20028;-62
2022/12/18 07:54:42;;;;;;;24.00;16.57;;;;;;;-8.16;100.00;102459.25;5013208;28;20120;-62
2022/12/18 07:57:08;;;;;;;25.17;15.80;;;;;;;-8.13;100.00;102446.19;5011542;28;20072;-62
2022/12/18 07:59:34;;;;;;;24.70;15.87;;;;;;;-8.10;100.00;102446.56;5013121;28;20116;-62
2022/12/18 08:01:59;;;;;;;21.90;14.90;;;;;;;-8.09;100.00;102448.38;5013792;28;20037;-62
2022/12/18 08:04:25;;;;;;;25.67;16.37;;;;;;;-8.07;100.00;102452.94;5012182;28;20018;-62
2022/12/18 08:06:50;;;;;;;22.83;15.30;;;;;;;-8.01;100.00;102456.97;5010246;28;20030;-62
2022/12/18 08:09:16;;;;;;;24.40;15.43;;;;;;;-7.97;100.00;102455.03;5010780;28;20026;-62
2022/12/18 08:11:42;;;;;;;28.13;17.70;;;;;;;-7.92;100.00;102457.28;5012170;28;20088;-62
2022/12/18 08:14:07;;;;;;;25.63;17.90;;;;;;;-7.87;100.00;102466.34;5014593;28;20398;-62
2022/12/18 08:16:33;;;;;;;27.37;15.93;;;;;;;-7.80;100.00;102457.97;5019799;28;20040;-62
2022/12/18 08:18:58;;;;;;;26.97;17.00;;;;;;;-7.77;100.00;102450.84;5018119;28;20029;-62
2022/12/18 08:21:27;;;;;;;25.07;15.63;;;;;;;-7.74;100.00;102458.81;5021499;28;20679;-62
2022/12/18 08:23:54;;;;;;;28.03;16.33;;;;;;;-7.68;100.00;102458.72;5012902;28;20049;-62
2022/12/18 08:26:20;;;;;;;27.67;16.40;;;;;;;-7.62;100.00;102462.00;5013968;28;20469;-62
2022/12/18 08:28:45;;;;;;;27.63;17.47;;;;;;;-7.58;100.00;102474.31;5008884;28;20036;-62
2022/12/18 08:31:11;;;;;;;25.83;16.90;;;;;;;-7.54;100.00;102471.50;5010740;28;20394;-62
2022/12/18 08:33:37;;;;;;;23.73;16.47;;;;;;;-7.50;100.00;102460.22;5010009;28;20057;-62
2022/12/18 08:36:04;;;;;;;27.30;17.50;;;;;;;-7.45;100.00;102464.25;5016241;28;20037;-62
2022/12/18 08:38:31;;;;;;;26.83;16.40;;;;;;;-7.40;100.00;102464.84;5012368;28;20026;-62
2022/12/18 08:41:04;;;;;;;26.53;16.73;;;;;;;-7.35;100.00;102471.38;5010917;28;20030;-62
2022/12/18 08:46:17;;;;;;;21.30;14.90;;;;;;;-7.25;100.00;102464.31;5012492;28;20041;-62
2022/12/18 08:48:43;;;;;;;23.03;15.37;;;;;;;-7.20;100.00;102452.31;5020694;28;20029;-62
2022/12/18 08:51:12;;;;;;;23.50;15.33;;;;;;;-7.18;100.00;102450.91;5010421;28;20064;-62
2022/12/18 08:53:37;;;;;;;25.23;15.90;;;;;;;-7.14;100.00;102443.00;5024639;28;20029;-62
2022/12/18 08:56:03;;;;;;;24.63;16.63;;;;;;;-7.09;100.00;102433.53;5017474;28;20030;-62
2022/12/18 08:58:29;;;;;;;25.30;16.03;;;;;;;-7.05;100.00;102437.38;5027214;28;20452;-62
2022/12/18 09:01:01;;;;;;;29.43;17.33;;;;;;;-7.01;100.00;102427.88;5016467;28;20040;-62
2022/12/18 09:03:26;;;;;;;24.67;16.30;;;;;;;-6.96;100.00;102432.59;5016658;28;20034;-62
2022/12/18 09:05:51;;;;;;;23.07;15.87;;;;;;;-6.90;100.00;102435.91;5021839;28;20043;-62
2022/12/18 09:08:17;;;;;;;21.90;16.23;;;;;;;-6.84;100.00;102424.09;5013673;28;20029;-62
2022/12/18 09:10:44;;;;;;;25.87;16.93;;;;;;;-6.80;100.00;102433.84;5011912;28;20459;-62
2022/12/18 09:13:11;;;;;;;25.63;17.13;;;;;;;-6.76;100.00;102438.56;5015464;28;20049;-64
2022/12/18 09:15:43;;;;;;;23.37;16.40;;;;;;;-6.72;100.00;102449.94;5017288;28;20054;-63
2022/12/18 09:18:09;;;;;;;25.13;17.10;;;;;;;-6.68;100.00;102446.22;5011977;28;20033;-63
2022/12/18 09:20:36;;;;;;;25.47;16.47;;;;;;;-6.62;100.00;102454.56;5024284;28;20116;-63
2022/12/18 09:23:02;;;;;;;24.53;15.67;;;;;;;-6.55;100.00;102461.31;5017274;28;20033;-63
2022/12/18 09:25:32;;;;;;;23.73;15.63;;;;;;;-6.49;100.00;102468.75;5014511;28;20056;-63
2022/12/18 09:27:59;;;;;;;23.45;15.93;;;;;;;-6.43;100.00;102470.44;5021705;28;20397;-63
2022/12/18 09:30:24;;;;;;;22.00;16.40;;;;;;;-6.39;100.00;102464.16;5014135;28;20045;-63
2022/12/18 09:32:49;;;;;;;24.03;15.37;;;;;;;-6.34;100.00;102458.06;5019318;28;20022;-63
2022/12/18 09:35:15;;;;;;;25.43;16.70;;;;;;;-6.33;100.00;102459.88;5021067;28;20535;-63
2022/12/18 09:37:41;;;;;;;22.77;15.13;;;;;;;-6.30;100.00;102452.69;5023670;28;20032;-63
2022/12/18 09:40:14;;;;;;;23.23;16.73;;;;;;;-6.25;100.00;102444.78;5008337;28;20025;-63
2022/12/18 09:42:39;;;;;;;23.73;15.83;;;;;;;-6.20;100.00;102438.69;5018145;28;20026;-63
2022/12/18 09:45:07;;;;;;;25.53;16.27;;;;;;;-6.18;100.00;102434.75;5008787;28;20385;-63
2022/12/18 09:47:37;;;;;;;24.60;16.17;;;;;;;-6.15;100.00;102430.06;5015084;28;20029;-64
2022/12/18 09:50:15;;;;;;;25.60;16.73;;;;;;;-6.10;100.00;102421.47;5012721;28;20115;-63
2022/12/18 09:52:45;;;;;;;23.77;16.57;;;;;;;-6.06;100.00;102426.19;5010164;28;20047;-63
2022/12/18 09:55:33;;;;;;;25.30;16.27;;;;;;;-6.02;100.00;102405.63;5008370;28;20018;-63
2022/12/18 09:58:07;;;;;;;24.63;15.90;;;;;;;-5.96;100.00;102397.00;5015260;28;20060;-63
2022/12/18 10:00:32;;;;;;;22.00;16.23;;;;;;;-5.94;100.00;102396.47;5016836;28;20033;-63
2022/12/18 10:03:08;;;;;;;25.13;16.17;;;;;;;-5.93;100.00;102410.91;5028814;28;20044;-63
2022/12/18 10:05:48;;;;;;;26.07;16.00;;;;;;;-5.83;100.00;102417.09;5017496;28;20026;-63
2022/12/18 10:08:22;;;;;;;23.83;15.90;;;;;;;-5.81;100.00;102421.63;5021206;28;20351;-63
2022/12/18 10:10:52;;;;;;;21.97;14.77;;;;;;;-5.75;100.00;102407.94;5018736;28;20033;-63
2022/12/18 10:13:45;;;;;;;22.77;15.97;;;;;;;-5.68;100.00;102413.94;5018550;28;20018;-63
2022/12/18 10:16:16;;;;;;;23.57;15.77;;;;;;;-5.62;100.00;102411.25;5024570;28;20526;-63
2022/12/18 10:18:51;;;;;;;25.07;17.10;;;;;;;-5.54;100.00;102413.09;5022921;28;20549;-64
2022/12/18 10:21:21;;;;;;;23.27;16.20;;;;;;;-5.48;100.00;102409.50;5013690;28;20014;-64
2022/12/18 10:23:49;;;;;;;24.50;16.67;;;;;;;-5.45;100.00;102413.31;5021497;28;21221;-64
2022/12/18 10:26:14;;;;;;;25.43;16.23;;;;;;;-5.43;100.00;102406.81;5022718;28;20028;-64
2022/12/18 10:28:41;;;;;;;25.57;16.53;;;;;;;-5.37;100.00;102399.09;5026574;28;20025;-64
2022/12/18 10:31:17;;;;;;;23.17;16.47;;;;;;;-5.31;100.00;102396.41;5028693;28;20052;-64
2022/12/18 10:33:43;;;;;;;22.53;16.13;;;;;;;-5.25;100.00;102396.25;5027455;28;20025;-64
2022/12/18 10:36:08;;;;;;;23.97;16.40;;;;;;;-5.22;100.00;102381.44;5017547;28;20381;-64
2022/12/18 10:38:34;;;;;;;24.63;17.20;;;;;;;-5.17;100.00;102372.78;5012768;28;20105;-65
2022/12/18 10:41:26;;;;;;;24.73;16.77;;;;;;;-5.09;100.00;102374.59;5027408;28;20021;-65
2022/12/18 10:44:20;;;;;;;23.13;16.53;;;;;;;-5.04;100.00;102369.22;5025816;28;20033;-65
2022/12/18 10:46:53;;;;;;;23.53;17.20;;;;;;;-4.99;100.00;102360.53;5027541;28;20030;-64
2022/12/18 10:49:42;;;;;;;26.17;16.30;;;;;;;-4.94;100.00;102356.94;5027044;28;20053;-64
2022/12/18 10:52:15;;;;;;;27.37;16.63;;;;;;;-4.88;100.00;102355.16;5026052;28;20045;-64
2022/12/18 10:54:51;;;;;;;23.60;16.83;;;;;;;-4.86;100.00;102353.72;5027820;28;20029;-64
2022/12/18 10:57:31;;;;;;;23.77;15.10;;;;;;;-4.80;100.00;102348.44;5027302;28;20026;-64
2022/12/18 10:59:59;;;;;;;22.85;15.82;;;;;;;-4.75;100.00;102341.41;5029475;28;20035;-64
2022/12/18 11:02:36;;;;;;;23.63;16.27;;;;;;;-4.71;100.00;102333.44;5024938;28;20056;-64
2022/12/18 11:05:22;;;;;;;20.03;14.70;;;;;;;-4.67;100.00;102325.50;5027168;28;20025;-65
2022/12/18 11:07:49;;;;;;;20.53;15.83;;;;;;;-4.65;100.00;102319.00;5017171;28;20108;-64
2022/12/18 11:10:20;;;;;;;21.63;15.10;;;;;;;-4.63;100.00;102327.69;5028989;28;20021;-64
2022/12/18 11:12:46;;;;;;;20.67;15.13;;;;;;;-4.56;100.00;102325.84;5016224;28;20040;-64